createdAt,value
2023-02-19T00:01:56.484Z,17.96
2023-02-19T00:04:24.845Z,17.91
2023-02-19T00:06:53.287Z,17.85
2023-02-19T00:09:22.399Z,17.80
2023-02-19T00:11:51.100Z,17.77
2023-02-19T00:14:22.228Z,17.74
2023-02-19T00:16:51.017Z,17.74
2023-02-19T00:19:21.748Z,17.70
2023-02-19T00:21:53.701Z,17.67
2023-02-19T00:24:23.132Z,17.65
2023-02-19T00:26:51.571Z,17.62
2023-02-19T00:29:22.072Z,17.59
2023-02-19T00:31:50.734Z,17.57
2023-02-19T00:34:19.141Z,17.54
2023-02-19T00:36:47.859Z,17.49
2023-02-19T00:39:19.160Z,17.44
2023-02-19T00:41:47.736Z,17.39
2023-02-19T00:44:16.542Z,17.34
2023-02-19T00:46:47.835Z,17.27
2023-02-19T00:49:22.172Z,17.19
2023-02-19T00:51:52.361Z,17.10
2023-02-19T00:54:21.271Z,17.00
2023-02-19T00:56:50.219Z,16.94
2023-02-19T00:59:19.070Z,16.85
2023-02-19T01:01:47.544Z,16.68
2023-02-19T01:04:17.408Z,16.51
2023-02-19T01:06:45.766Z,16.41
2023-02-19T01:09:14.549Z,16.28
2023-02-19T01:11:43.262Z,16.15
2023-02-19T01:14:11.868Z,16.07
2023-02-19T01:16:40.232Z,16.03
2023-02-19T01:19:08.726Z,15.97
2023-02-19T01:21:37.025Z,15.84
2023-02-19T01:24:05.434Z,15.74
2023-02-19T01:26:34.706Z,15.64
2023-02-19T01:29:03.816Z,15.58
2023-02-19T01:31:33.562Z,15.51
2023-02-19T01:34:03.526Z,15.45
2023-02-19T01:36:34.409Z,15.40
2023-02-19T01:39:06.453Z,15.36
2023-02-19T01:41:38.827Z,15.32
2023-02-19T01:44:29.996Z,15.27
2023-02-19T01:46:58.384Z,15.21
2023-02-19T01:49:31.322Z,15.16
2023-02-19T01:52:09.472Z,15.09
2023-02-19T01:54:41.777Z,15.04
2023-02-19T01:57:15.304Z,14.99
2023-02-19T01:59:44.406Z,14.95
2023-02-19T02:02:13.142Z,14.90
2023-02-19T02:04:41.502Z,14.87
2023-02-19T02:07:30.188Z,14.83
2023-02-19T02:10:17.454Z,14.77
2023-02-19T02:12:45.713Z,14.71
2023-02-19T02:15:14.973Z,14.68
2023-02-19T02:17:59.059Z,14.66
2023-02-19T02:20:45.420Z,14.62
2023-02-19T02:23:29.044Z,14.59
2023-02-19T02:26:05.720Z,14.56
2023-02-19T02:29:04.596Z,14.53
2023-02-19T02:31:45.237Z,14.48
2023-02-19T02:34:22.806Z,14.40
2023-02-19T02:36:55.957Z,14.32
2023-02-19T02:39:28.350Z,14.22
2023-02-19T02:42:20.038Z,14.12
2023-02-19T02:45:08.402Z,14.00
2023-02-19T02:47:43.144Z,13.86
2023-02-19T02:50:17.684Z,13.79
2023-02-19T02:53:04.574Z,13.72
2023-02-19T02:55:39.168Z,13.71
2023-02-19T02:58:07.514Z,13.66
2023-02-19T03:00:56.170Z,13.64
2023-02-19T03:03:27.665Z,13.60
2023-02-19T03:06:01.221Z,13.55
2023-02-19T03:08:49.554Z,13.49
2023-02-19T03:11:36.308Z,13.46
2023-02-19T03:14:45.601Z,13.41
2023-02-19T03:17:55.156Z,13.38
2023-02-19T03:20:25.722Z,13.35
2023-02-19T03:22:55.920Z,13.31
2023-02-19T03:25:48.141Z,13.27
2023-02-19T03:28:41.726Z,13.22
2023-02-19T03:31:22.065Z,13.14
2023-02-19T03:33:56.694Z,13.09
2023-02-19T03:36:29.251Z,13.07
2023-02-19T03:39:09.427Z,13.04
2023-02-19T03:41:59.259Z,13.00
2023-02-19T03:44:51.621Z,12.93
2023-02-19T03:47:27.589Z,12.84
2023-02-19T03:50:12.822Z,12.75
2023-02-19T03:52:48.117Z,12.67
2023-02-19T03:55:25.653Z,12.57
2023-02-19T03:58:05.970Z,12.51
2023-02-19T04:00:45.222Z,12.47
2023-02-19T04:03:21.925Z,12.43
2023-02-19T04:05:57.633Z,12.39
2023-02-19T04:08:28.286Z,12.36
2023-02-19T04:10:59.402Z,12.28
2023-02-19T04:14:03.789Z,12.23
2023-02-19T04:16:34.694Z,12.21
2023-02-19T04:19:12.770Z,12.16
2023-02-19T04:21:43.225Z,12.13
2023-02-19T04:24:23.361Z,12.07
2023-02-19T04:26:52.004Z,12.01
2023-02-19T04:29:20.310Z,11.97
2023-02-19T04:31:49.184Z,11.95
2023-02-19T04:34:17.617Z,11.93
2023-02-19T04:36:45.908Z,11.89
2023-02-19T04:39:14.331Z,11.86
2023-02-19T04:41:42.610Z,11.80
2023-02-19T04:44:10.887Z,11.74
2023-02-19T04:46:40.301Z,11.66
2023-02-19T04:49:09.834Z,11.62
2023-02-19T04:51:38.287Z,11.56
2023-02-19T04:54:07.151Z,11.52
2023-02-19T04:56:35.541Z,11.48
2023-02-19T04:59:04.010Z,11.43
2023-02-19T05:01:32.598Z,11.37
2023-02-19T05:04:00.894Z,11.30
2023-02-19T05:06:29.271Z,11.21
2023-02-19T05:08:57.581Z,11.13
2023-02-19T05:11:25.865Z,11.11
2023-02-19T05:13:54.141Z,11.11
2023-02-19T05:16:22.411Z,11.07
2023-02-19T05:18:50.745Z,11.03
2023-02-19T05:21:19.101Z,11.04
2023-02-19T05:23:47.486Z,11.03
2023-02-19T05:26:18.997Z,10.92
2023-02-19T05:28:52.615Z,10.80
2023-02-19T05:31:22.018Z,10.74
2023-02-19T05:33:53.661Z,10.69
2023-02-19T05:36:23.175Z,10.65
2023-02-19T05:38:58.740Z,10.63
2023-02-19T05:41:31.282Z,10.58
2023-02-19T05:44:00.280Z,10.54
2023-02-19T05:46:30.993Z,10.47
2023-02-19T05:48:59.363Z,10.41
2023-02-19T05:51:28.938Z,10.35
2023-02-19T05:53:58.408Z,10.29
2023-02-19T05:56:42.523Z,10.23
2023-02-19T05:59:21.504Z,10.18
2023-02-19T06:01:51.995Z,10.12
2023-02-19T06:04:21.338Z,10.09
2023-02-19T06:06:50.137Z,10.04
2023-02-19T06:09:18.783Z,10.01
2023-02-19T06:11:47.321Z,9.98
2023-02-19T06:14:16.276Z,9.92
2023-02-19T06:16:45.708Z,9.89
2023-02-19T06:19:13.986Z,9.87
2023-02-19T06:21:42.431Z,9.79
2023-02-19T06:24:11.576Z,9.71
2023-02-19T06:26:41.036Z,9.69
2023-02-19T06:29:09.308Z,9.66
2023-02-19T06:31:37.704Z,9.58
2023-02-19T06:34:06.713Z,9.51
2023-02-19T06:36:35.086Z,9.47
2023-02-19T06:39:05.428Z,9.42
2023-02-19T06:41:35.388Z,9.41
2023-02-19T06:44:03.946Z,9.37
2023-02-19T06:46:32.276Z,9.33
2023-02-19T06:49:00.686Z,9.30
2023-02-19T06:51:30.640Z,9.28
2023-02-19T06:53:59.204Z,9.26
2023-02-19T06:56:33.354Z,9.23
2023-02-19T06:59:04.198Z,9.20
2023-02-19T07:01:34.640Z,9.20
2023-02-19T07:04:03.728Z,9.16
2023-02-19T07:06:32.427Z,9.13
2023-02-19T07:09:01.467Z,9.11
2023-02-19T07:11:33.174Z,9.04
2023-02-19T07:14:03.534Z,8.96
2023-02-19T07:16:32.174Z,8.95
2023-02-19T07:19:01.882Z,8.86
2023-02-19T07:21:31.335Z,8.81
2023-02-19T07:23:59.906Z,8.79
2023-02-19T07:26:28.179Z,8.80
2023-02-19T07:28:56.495Z,8.77
2023-02-19T07:31:26.204Z,8.73
2023-02-19T07:33:56.099Z,8.69
2023-02-19T07:36:26.454Z,8.63
2023-02-19T07:38:59.314Z,8.58
2023-02-19T07:41:28.858Z,8.51
2023-02-19T07:43:57.296Z,8.45
2023-02-19T07:46:26.574Z,8.44
2023-02-19T07:48:54.845Z,8.43
2023-02-19T07:51:23.592Z,8.35
2023-02-19T07:53:52.143Z,8.31
2023-02-19T07:56:21.771Z,8.28
2023-02-19T07:58:50.629Z,8.24
2023-02-19T08:01:44.507Z,8.16
2023-02-19T08:04:14.921Z,8.12
2023-02-19T08:06:43.962Z,8.10
2023-02-19T08:09:12.807Z,8.09
2023-02-19T08:11:59.326Z,8.05
2023-02-19T08:14:28.821Z,8.00
2023-02-19T08:16:57.822Z,7.96
2023-02-19T08:19:26.217Z,7.91
2023-02-19T08:21:54.663Z,7.86
2023-02-19T08:24:22.940Z,7.87
2023-02-19T08:26:51.588Z,7.87
2023-02-19T08:29:19.906Z,7.88
2023-02-19T08:31:48.288Z,7.86
2023-02-19T08:34:16.742Z,7.87
2023-02-19T08:36:45.127Z,7.82
2023-02-19T08:39:13.412Z,7.74
2023-02-19T08:41:41.706Z,7.68
2023-02-19T08:44:10.038Z,7.64
2023-02-19T08:46:38.761Z,7.63
2023-02-19T08:49:07.071Z,7.58
2023-02-19T08:51:35.321Z,7.57
2023-02-19T08:54:05.194Z,7.53
2023-02-19T08:56:33.508Z,7.50
2023-02-19T08:59:01.788Z,7.49
2023-02-19T09:01:30.105Z,7.46
2023-02-19T09:03:58.413Z,7.44
2023-02-19T09:06:26.921Z,7.39
2023-02-19T09:08:55.256Z,7.34
2023-02-19T09:11:23.538Z,7.30
2023-02-19T09:13:51.829Z,7.28
2023-02-19T09:16:20.105Z,7.23
2023-02-19T09:18:48.475Z,7.18
2023-02-19T09:21:16.777Z,7.14
2023-02-19T09:23:45.063Z,7.08
2023-02-19T09:26:14.831Z,7.04
2023-02-19T09:28:43.246Z,7.03
2023-02-19T09:31:15.114Z,7.01
2023-02-19T09:33:45.289Z,6.98
2023-02-19T09:36:15.328Z,6.92
2023-02-19T09:38:43.939Z,6.88
2023-02-19T09:41:27.585Z,6.88
2023-02-19T09:43:57.007Z,6.88
2023-02-19T09:46:33.521Z,6.86
2023-02-19T09:49:14.533Z,6.82
2023-02-19T09:51:48.532Z,6.76
2023-02-19T09:54:27.591Z,6.70
2023-02-19T09:56:57.593Z,6.63
2023-02-19T09:59:29.838Z,6.60
2023-02-19T10:02:06.080Z,6.57
2023-02-19T10:04:34.381Z,6.55
2023-02-19T10:07:04.640Z,6.54
2023-02-19T10:09:33.016Z,6.52
2023-02-19T10:12:01.639Z,6.50
2023-02-19T10:14:51.515Z,6.45
2023-02-19T10:17:31.605Z,6.40
2023-02-19T10:19:59.927Z,6.38
2023-02-19T10:22:28.514Z,6.38
2023-02-19T10:24:57.690Z,6.37
2023-02-19T10:27:31.511Z,6.37
2023-02-19T10:30:01.523Z,6.37
2023-02-19T10:32:30.643Z,6.36
2023-02-19T10:35:17.687Z,6.35
2023-02-19T10:37:51.714Z,6.31
2023-02-19T10:40:27.154Z,6.26
2023-02-19T10:43:01.632Z,6.20
2023-02-19T10:45:32.581Z,6.16
2023-02-19T10:48:02.080Z,6.10
2023-02-19T10:50:35.652Z,6.10
2023-02-19T10:53:03.925Z,6.08
2023-02-19T10:55:38.104Z,6.04
2023-02-19T10:58:27.899Z,6.00
2023-02-19T11:01:19.516Z,5.99
2023-02-19T11:03:49.957Z,5.98
2023-02-19T11:06:21.547Z,6.02
2023-02-19T11:08:53.177Z,6.01
2023-02-19T11:11:37.376Z,5.98
2023-02-19T11:14:19.835Z,5.96
2023-02-19T11:16:52.902Z,5.90
2023-02-19T11:19:30.469Z,5.89
2023-02-19T11:22:00.595Z,5.90
2023-02-19T11:24:34.902Z,5.86
2023-02-19T11:27:08.727Z,5.82
2023-02-19T11:29:37.176Z,5.77
2023-02-19T11:32:30.605Z,5.73
2023-02-19T11:35:37.275Z,5.67
2023-02-19T11:38:11.586Z,5.60
2023-02-19T11:41:08.555Z,5.55
2023-02-19T11:43:53.739Z,5.49
2023-02-19T11:46:27.636Z,5.46
2023-02-19T11:49:07.885Z,5.49
2023-02-19T11:52:02.467Z,5.46
2023-02-19T11:54:31.089Z,5.44
2023-02-19T11:57:37.080Z,5.42
2023-02-19T12:00:28.092Z,5.43
2023-02-19T12:03:16.424Z,5.43
2023-02-19T12:05:59.277Z,5.41
2023-02-19T12:08:45.577Z,5.38
2023-02-19T12:11:32.311Z,5.33
2023-02-19T12:14:32.950Z,5.32
2023-02-19T12:17:26.617Z,5.36
2023-02-19T12:20:08.504Z,5.34
2023-02-19T12:22:44.412Z,5.33
2023-02-19T12:25:49.808Z,5.32
2023-02-19T12:28:48.437Z,5.30
2023-02-19T12:31:36.075Z,5.27
2023-02-19T12:34:22.922Z,5.29
2023-02-19T12:37:21.891Z,5.28
2023-02-19T12:40:23.962Z,5.25
2023-02-19T12:43:18.920Z,5.24
2023-02-19T12:45:51.502Z,5.21
2023-02-19T12:48:45.602Z,5.18
2023-02-19T12:51:42.730Z,5.12
2023-02-19T12:54:16.153Z,5.10
2023-02-19T12:56:48.413Z,5.08
2023-02-19T12:59:24.185Z,5.09
2023-02-19T13:02:06.407Z,5.02
2023-02-19T13:05:01.261Z,4.97
2023-02-19T13:07:44.888Z,5.01
2023-02-19T13:10:48.156Z,5.02
2023-02-19T13:13:24.031Z,5.04
2023-02-19T13:16:01.391Z,5.00
2023-02-19T13:19:00.400Z,4.98
2023-02-19T13:21:53.594Z,4.99
2023-02-19T13:24:26.646Z,4.96
2023-02-19T13:27:36.518Z,4.91
2023-02-19T13:30:14.607Z,4.85
2023-02-19T13:33:20.678Z,4.80
2023-02-19T13:36:06.868Z,4.81
2023-02-19T13:38:49.978Z,4.78
2023-02-19T13:41:28.955Z,4.74
2023-02-19T13:44:09.281Z,4.73
2023-02-19T13:46:45.393Z,4.72
2023-02-19T13:49:42.794Z,4.70
2023-02-19T13:52:29.624Z,4.66
2023-02-19T13:55:34.612Z,4.61
2023-02-19T13:58:41.311Z,4.57
2023-02-19T14:01:12.246Z,4.55
2023-02-19T14:03:47.404Z,4.48
2023-02-19T14:06:16.155Z,4.47
2023-02-19T14:08:49.134Z,4.46
2023-02-19T14:11:18.795Z,4.44
2023-02-19T14:13:54.194Z,4.38
2023-02-19T14:16:35.805Z,4.36
2023-02-19T14:19:04.513Z,4.30
2023-02-19T14:21:41.792Z,4.28
2023-02-19T14:24:15.662Z,4.30
2023-02-19T14:26:44.377Z,4.29
2023-02-19T14:29:17.476Z,4.29
2023-02-19T14:31:47.178Z,4.25
2023-02-19T14:34:23.196Z,4.25
2023-02-19T14:36:54.368Z,4.24
2023-02-19T14:39:36.005Z,4.27
2023-02-19T14:42:08.891Z,4.26
2023-02-19T14:44:53.717Z,4.22
2023-02-19T14:47:24.512Z,4.23
2023-02-19T14:50:06.777Z,4.22
2023-02-19T14:52:46.677Z,4.20
2023-02-19T14:55:37.090Z,4.22
2023-02-19T14:58:11.516Z,4.22
2023-02-19T15:00:41.658Z,4.22
2023-02-19T15:03:33.237Z,4.24
2023-02-19T15:06:12.330Z,4.24
2023-02-19T15:09:04.769Z,4.28
2023-02-19T15:11:36.180Z,4.29
2023-02-19T15:14:08.796Z,4.31
2023-02-19T15:16:37.874Z,4.28
2023-02-19T15:19:10.623Z,4.26
2023-02-19T15:21:45.832Z,4.25
2023-02-19T15:24:16.820Z,4.28
2023-02-19T15:26:51.419Z,4.32
2023-02-19T15:29:22.302Z,4.36
2023-02-19T15:31:55.821Z,4.40
2023-02-19T15:34:29.890Z,4.49
2023-02-19T15:37:07.355Z,4.51
2023-02-19T15:39:45.888Z,4.57
2023-02-19T15:42:24.037Z,4.68
2023-02-19T15:45:19.431Z,4.78
2023-02-19T15:48:01.061Z,4.87
2023-02-19T15:50:37.992Z,4.97
2023-02-19T15:53:22.971Z,5.08
2023-02-19T15:56:08.883Z,5.20
2023-02-19T15:58:54.027Z,5.40
2023-02-19T16:01:31.866Z,5.58
2023-02-19T16:04:00.376Z,5.74
2023-02-19T16:06:29.842Z,5.88
2023-02-19T16:09:05.432Z,6.03
2023-02-19T16:11:39.844Z,6.17
2023-02-19T16:14:35.040Z,6.30
2023-02-19T16:17:12.442Z,6.44
2023-02-19T16:19:55.615Z,6.54
2023-02-19T16:22:26.846Z,6.65
2023-02-19T16:25:01.955Z,6.76
2023-02-19T16:27:36.392Z,6.90
2023-02-19T16:30:32.938Z,7.03
2023-02-19T16:33:37.853Z,7.18
2023-02-19T16:36:24.796Z,7.34
2023-02-19T16:39:07.941Z,7.46
2023-02-19T16:41:36.267Z,7.58
2023-02-19T16:44:32.956Z,7.70
2023-02-19T16:47:28.670Z,7.82
2023-02-19T16:49:58.349Z,7.94
2023-02-19T16:52:26.672Z,8.07
2023-02-19T16:54:55.000Z,8.16
2023-02-19T16:57:23.393Z,8.25
2023-02-19T16:59:51.830Z,8.31
2023-02-19T17:02:23.440Z,8.39
2023-02-19T17:04:56.034Z,8.47
2023-02-19T17:07:24.569Z,8.56
2023-02-19T17:09:52.896Z,8.64
2023-02-19T17:12:21.458Z,8.74
2023-02-19T17:14:52.076Z,8.82
2023-02-19T17:17:20.388Z,8.93
2023-02-19T17:19:49.393Z,9.03
2023-02-19T17:22:18.686Z,9.10
2023-02-19T17:24:47.424Z,9.20
2023-02-19T17:27:15.971Z,9.30
2023-02-19T17:29:44.876Z,9.37
2023-02-19T17:32:13.464Z,9.45
2023-02-19T17:34:41.900Z,9.57
2023-02-19T17:37:10.149Z,9.66
2023-02-19T17:39:38.410Z,9.73
2023-02-19T17:42:07.026Z,9.81
2023-02-19T17:44:35.436Z,9.87
2023-02-19T17:47:03.864Z,9.96
2023-02-19T17:49:33.238Z,10.07
2023-02-19T17:52:01.548Z,10.13
2023-02-19T17:54:29.929Z,10.21
2023-02-19T17:56:58.208Z,10.31
2023-02-19T17:59:26.554Z,10.38
2023-02-19T18:01:54.886Z,10.48
2023-02-19T18:04:23.309Z,10.59
2023-02-19T18:06:51.754Z,10.73
2023-02-19T18:09:22.334Z,10.85
2023-02-19T18:11:50.728Z,10.96
2023-02-19T18:14:19.041Z,11.06
2023-02-19T18:16:50.450Z,11.14
2023-02-19T18:19:19.106Z,11.27
2023-02-19T18:21:47.591Z,11.40
2023-02-19T18:24:16.146Z,11.59
2023-02-19T18:26:44.859Z,11.69
2023-02-19T18:29:13.919Z,11.75
2023-02-19T18:31:42.309Z,11.82
2023-02-19T18:34:19.236Z,11.91
2023-02-19T18:36:49.409Z,11.99
2023-02-19T18:39:20.774Z,12.10
2023-02-19T18:41:50.661Z,12.20
2023-02-19T18:44:21.564Z,12.28
2023-02-19T18:46:50.650Z,12.40
2023-02-19T18:49:19.157Z,12.48
2023-02-19T18:51:48.179Z,12.59
2023-02-19T18:54:16.662Z,12.69
2023-02-19T18:56:46.711Z,12.79
2023-02-19T18:59:15.585Z,12.92
2023-02-19T19:01:45.098Z,13.02
2023-02-19T19:04:14.011Z,13.12
2023-02-19T19:06:42.296Z,13.23
2023-02-19T19:09:10.667Z,13.38
2023-02-19T19:11:39.386Z,13.56
2023-02-19T19:14:07.717Z,13.71
2023-02-19T19:16:36.379Z,13.86
2023-02-19T19:19:04.736Z,13.99
2023-02-19T19:21:33.117Z,14.13
2023-02-19T19:24:01.464Z,14.25
2023-02-19T19:26:29.898Z,14.38
2023-02-19T19:28:58.253Z,14.59
2023-02-19T19:31:27.489Z,14.73
2023-02-19T19:33:55.865Z,14.87
2023-02-19T19:36:25.479Z,15.04
2023-02-19T19:38:54.014Z,15.17
2023-02-19T19:41:22.748Z,15.31
2023-02-19T19:43:51.087Z,15.39
2023-02-19T19:46:21.010Z,15.57
2023-02-19T19:48:51.314Z,15.72
2023-02-19T19:51:19.848Z,15.86
2023-02-19T19:53:50.144Z,15.98
2023-02-19T19:56:19.637Z,16.06
2023-02-19T19:58:49.711Z,16.20
2023-02-19T20:01:21.791Z,16.36
2023-02-19T20:03:54.353Z,16.49
2023-02-19T20:06:30.337Z,16.69
2023-02-19T20:09:00.586Z,16.81
2023-02-19T20:11:29.078Z,16.93
2023-02-19T20:13:57.369Z,17.01
2023-02-19T20:16:27.814Z,17.14
2023-02-19T20:18:56.210Z,17.26
2023-02-19T20:21:24.512Z,17.37
2023-02-19T20:23:52.801Z,17.45
2023-02-19T20:26:26.652Z,17.52
2023-02-19T20:28:55.936Z,17.55
2023-02-19T20:31:25.151Z,17.64
2023-02-19T20:33:53.721Z,17.77
2023-02-19T20:36:22.095Z,17.85
2023-02-19T20:38:53.386Z,17.90
2023-02-19T20:41:21.772Z,17.98
2023-02-19T20:43:50.365Z,18.11
2023-02-19T20:46:19.654Z,18.24
2023-02-19T20:48:49.441Z,18.32
2023-02-19T20:51:18.797Z,18.46
2023-02-19T20:53:47.134Z,18.47
2023-02-19T20:56:15.820Z,18.51
2023-02-19T20:58:44.264Z,18.56
2023-02-19T21:01:12.997Z,18.67
2023-02-19T21:03:41.499Z,18.73
2023-02-19T21:06:10.026Z,18.78
2023-02-19T21:08:38.613Z,18.86
2023-02-19T21:11:07.205Z,18.95
2023-02-19T21:13:36.159Z,19.05
2023-02-19T21:16:04.957Z,19.08
2023-02-19T21:18:33.301Z,19.04
2023-02-19T21:21:01.640Z,19.07
2023-02-19T21:23:29.955Z,19.13
2023-02-19T21:25:58.425Z,19.28
2023-02-19T21:28:26.784Z,19.36
2023-02-19T21:30:55.281Z,19.38
2023-02-19T21:33:23.569Z,19.43
2023-02-19T21:35:51.889Z,19.48
2023-02-19T21:38:20.199Z,19.57
2023-02-19T21:40:48.511Z,19.62
2023-02-19T21:43:17.250Z,19.67
2023-02-19T21:45:45.636Z,19.76
2023-02-19T21:48:13.991Z,19.88
2023-02-19T21:50:46.395Z,19.92
2023-02-19T21:53:15.585Z,19.91
2023-02-19T21:55:56.650Z,19.90
2023-02-19T21:58:26.800Z,19.83
2023-02-19T22:00:55.270Z,19.78
2023-02-19T22:03:23.597Z,19.83
2023-02-19T22:05:51.881Z,19.88
2023-02-19T22:08:20.379Z,19.93
2023-02-19T22:10:48.912Z,19.98
2023-02-19T22:13:17.320Z,20.02
2023-02-19T22:15:45.699Z,20.14
2023-02-19T22:18:13.990Z,20.46
2023-02-19T22:20:42.343Z,20.67
2023-02-19T22:23:10.678Z,20.46
2023-02-19T22:25:38.990Z,20.44
2023-02-19T22:28:08.665Z,20.69
2023-02-19T22:30:37.073Z,20.80
2023-02-19T22:33:07.102Z,20.81
2023-02-19T22:35:35.505Z,20.74
2023-02-19T22:38:03.822Z,20.61
2023-02-19T22:40:32.191Z,20.64
2023-02-19T22:43:00.469Z,20.62
2023-02-19T22:45:28.750Z,20.67
2023-02-19T22:47:57.258Z,20.60
2023-02-19T22:50:27.320Z,20.41
2023-02-19T22:52:56.029Z,20.29
2023-02-19T22:55:24.369Z,20.21
2023-02-19T22:57:52.741Z,20.13
2023-02-19T23:00:22.471Z,20.01
2023-02-19T23:02:50.917Z,19.98
2023-02-19T23:05:19.276Z,20.05
2023-02-19T23:07:48.190Z,20.04
2023-02-19T23:10:16.524Z,20.02
2023-02-19T23:12:44.825Z,20.11
2023-02-19T23:15:13.368Z,20.21
2023-02-19T23:17:42.309Z,20.42
2023-02-19T23:20:10.952Z,20.57
2023-02-19T23:22:39.318Z,20.60
2023-02-19T23:25:07.875Z,20.62
2023-02-19T23:27:36.147Z,20.51
2023-02-19T23:30:04.766Z,20.44
2023-02-19T23:32:33.124Z,20.35
2023-02-19T23:35:01.393Z,20.23
2023-02-19T23:37:29.760Z,20.09
2023-02-19T23:39:58.075Z,19.98
2023-02-19T23:42:26.473Z,19.97
2023-02-19T23:44:54.784Z,19.93
2023-02-19T23:47:23.426Z,19.87
2023-02-19T23:49:51.730Z,19.77
2023-02-19T23:52:20.008Z,19.66
2023-02-19T23:54:48.310Z,19.53
2023-02-19T23:57:16.746Z,19.35
2023-02-19T23:59:45.652Z,19.18
